Main page
METAR-TAF:

METAR-TAF

Airports :

Deauville – Normandie Airport

Deauville, France

latitude: 49-21-55N, longitude: 000-09-16E, elevation: 146 m

Current weather observation

The report was made 19 minutes ago, at 01:00 UTC
Wind 3 kt from the South/Southwest
Temperature 4°C
Humidity 87%
Pressure 1012 hPa
Visibility 10 km or more
no clouds below 1500 m and no cumulonimbus

METAR: LFRG 250100Z AUTO 21003KT CAVOK 04/02 Q1012

Time: 03:19 (01:19 UTC)

Forecast

The report was made 11 hours and 19 minutes ago, at 14:00 UTC
Forecast valid from 24 at 15 UTC to 24 at 24 UTC
Wind 10 kt from the Northwest
Visibility 10 km or more
Scattered clouds at a height of 2500 ft
Broken clouds at a height of 4000 ft
Probability 40% :
Temporary
from 24 at 15 UTC to 24 at 18 UTC
Visibility: 4000 m
rain showers
Becoming
from 24 at 18 UTC to 24 at 20 UTC
Wind 5 kt from variable directions

TAF: LFRG 241400Z 2415/2424 32010KT 9999 SCT025 BKN040 PROB40 TEMPO 2415/2418 4000 SHRA BECMG 2418/2420 VRB05KT

Weather observations and forecasts of more than 4000 airports (METAR and TAF reports).

The available stations are represented by yellow and red dots on the map.

Hover mouse over dot to see the name of the station.

Then click to see weather observations and forecasts.

To change the map : click on the green buttons with a black cross to zoom in, on the green button with a dash to zoom out, or on the green arrows for adjacent maps.


METAR-TAF: